Time,TemperatureF,DewpointF,PressureIn,WindDirection,WindDirectionDegrees,WindSpeedMPH,WindSpeedGustMPH,Humidity,HourlyPrecipIn,Conditions,Clouds,dailyrainin,SolarRadiationWatts/m^2,SoftwareType,DateUTC
2013-08-17 00:02:00,73.9,73.0,30.04,SSW,200,0.0,2.0,97,0.00,,,0.02,0.0,meteohub,2013-08-17 04:02:00,
2013-08-17 00:05:00,73.9,73.0,30.04,SSW,200,0.0,2.0,97,0.00,,,0.02,0.0,meteohub,2013-08-17 04:05:00,
2013-08-17 00:07:00,73.9,73.0,30.04,SSW,200,1.0,3.0,97,0.00,,,0.02,0.0,meteohub,2013-08-17 04:07:00,
2013-08-17 00:12:00,73.9,73.0,30.04,SSW,200,0.0,3.0,97,0.00,,,0.02,0.0,meteohub,2013-08-17 04:12:00,
2013-08-17 00:17:00,73.9,73.0,30.04,SSW,205,0.0,3.0,97,0.00,,,0.03,0.0,meteohub,2013-08-17 04:17:00,
2013-08-17 00:22:00,74.1,73.2,30.03,SSW,193,0.0,2.0,97,0.01,,,0.03,0.0,meteohub,2013-08-17 04:22:00,
2013-08-17 00:27:00,74.1,73.2,30.03,SSW,193,0.0,2.0,97,0.01,,,0.03,0.0,meteohub,2013-08-17 04:27:00,
2013-08-17 00:32:00,74.1,73.2,30.04,SSW,193,0.0,2.0,97,0.01,,,0.03,0.0,meteohub,2013-08-17 04:32:00,
2013-08-17 00:40:00,74.1,73.2,30.04,SSW,193,0.0,2.0,97,0.01,,,0.03,0.0,meteohub,2013-08-17 04:40:00,
2013-08-17 00:46:00,74.1,73.2,30.04,SSW,193,0.0,1.0,97,0.01,,,0.03,0.0,meteohub,2013-08-17 04:46:00,
2013-08-17 00:52:00,74.1,73.2,30.04,SSW,193,0.0,1.0,97,0.01,,,0.03,0.0,meteohub,2013-08-17 04:52:00,
2013-08-17 00:57:00,74.1,73.2,30.04,WSW,248,0.0,1.0,97,0.01,,,0.03,0.0,meteohub,2013-08-17 04:57:00,
2013-08-17 01:04:00,74.1,73.2,30.03,WSW,248,0.0,1.0,97,0.01,,,0.03,0.0,meteohub,2013-08-17 05:04:00,
2013-08-17 01:10:00,74.1,73.2,30.03,WSW,247,0.0,2.0,97,0.01,,,0.03,0.0,meteohub,2013-08-17 05:10:00,
2013-08-17 01:17:00,74.3,73.4,30.04,WSW,247,0.0,1.0,97,0.00,,,0.03,0.0,meteohub,2013-08-17 05:17:00,
2013-08-17 01:22:00,74.3,73.8,30.04,WSW,247,0.0,1.0,98,0.00,,,0.03,0.0,meteohub,2013-08-17 05:22:00,
2013-08-17 01:29:00,74.3,73.8,30.03,WSW,247,0.0,1.0,98,0.00,,,0.03,0.0,meteohub,2013-08-17 05:29:00,
2013-08-17 01:35:00,74.5,73.9,30.03,SSW,193,1.0,1.0,98,0.00,,,0.03,0.0,meteohub,2013-08-17 05:35:00,
2013-08-17 01:41:00,74.5,73.9,30.02,SSW,194,1.0,1.0,98,0.00,,,0.03,0.0,meteohub,2013-08-17 05:41:00,
2013-08-17 01:47:00,74.5,73.9,30.02,SSW,194,0.0,2.0,98,0.00,,,0.03,0.0,meteohub,2013-08-17 05:47:00,
2013-08-17 01:54:00,74.5,73.9,30.01,SSW,194,0.0,2.0,98,0.00,,,0.03,0.0,meteohub,2013-08-17 05:54:00,
2013-08-17 02:00:00,74.5,73.9,30.01,SSW,194,0.0,1.0,98,0.00,,,0.03,0.0,meteohub,2013-08-17 06:00:00,
2013-08-17 02:06:00,74.3,73.4,30.01,SSW,194,0.0,1.0,97,0.00,,,0.03,0.0,meteohub,2013-08-17 06:06:00,
2013-08-17 02:12:00,74.3,73.4,30.01,SSW,194,0.0,1.0,97,0.00,,,0.03,0.0,meteohub,2013-08-17 06:12:00,
2013-08-17 02:18:00,74.1,73.2,30.01,SSW,194,0.0,1.0,97,0.00,,,0.03,0.0,meteohub,2013-08-17 06:18:00,
2013-08-17 02:25:00,74.1,73.2,30.01,SSW,194,1.0,1.0,97,0.00,,,0.03,0.0,meteohub,2013-08-17 06:25:00,
2013-08-17 02:31:00,74.1,73.2,30.01,SSW,194,1.0,2.0,97,0.00,,,0.03,0.0,meteohub,2013-08-17 06:31:00,
2013-08-17 02:37:00,74.1,73.2,30.01,SSW,194,0.0,2.0,97,0.00,,,0.03,0.0,meteohub,2013-08-17 06:37:00,
2013-08-17 02:43:00,74.1,73.2,30.02,SSW,194,0.0,2.0,97,0.00,,,0.03,0.0,meteohub,2013-08-17 06:43:00,
2013-08-17 02:49:00,74.1,73.2,30.01,SSW,194,0.0,1.0,97,0.00,,,0.03,0.0,meteohub,2013-08-17 06:49:00,
2013-08-17 02:55:00,74.1,73.2,30.01,SSW,194,0.0,1.0,97,0.00,,,0.03,0.0,meteohub,2013-08-17 06:55:00,
2013-08-17 03:02:00,74.1,73.6,30.01,SSW,194,0.0,1.0,98,0.00,,,0.03,0.0,meteohub,2013-08-17 07:02:00,
2013-08-17 03:07:00,74.1,73.6,30.01,SSW,194,0.0,1.0,98,0.00,,,0.03,0.0,meteohub,2013-08-17 07:07:00,
2013-08-17 03:12:00,74.1,73.6,30.01,SSW,194,0.0,1.0,98,0.00,,,0.03,0.0,meteohub,2013-08-17 07:12:00,
2013-08-17 03:17:00,74.1,73.6,30.01,SSW,194,0.0,1.0,98,0.00,,,0.03,0.0,meteohub,2013-08-17 07:17:00,
2013-08-17 03:23:00,74.1,73.6,30.00,SSW,194,0.0,1.0,98,0.00,,,0.03,0.0,meteohub,2013-08-17 07:23:00,
2013-08-17 03:30:00,74.1,73.6,30.00,SSW,194,0.0,0.0,98,0.00,,,0.03,0.0,meteohub,2013-08-17 07:30:00,
2013-08-17 03:36:00,74.1,73.6,30.00,SSW,194,0.0,1.0,98,0.00,,,0.03,0.0,meteohub,2013-08-17 07:36:00,
2013-08-17 03:42:00,74.1,73.6,30.01,SSW,194,0.0,1.0,98,0.00,,,0.03,0.0,meteohub,2013-08-17 07:42:00,
2013-08-17 03:47:00,74.1,73.6,30.01,SSW,194,0.0,1.0,98,0.00,,,0.03,0.0,meteohub,2013-08-17 07:47:00,
2013-08-17 03:54:00,74.1,73.6,30.00,SSW,194,0.0,0.0,98,0.00,,,0.03,0.0,meteohub,2013-08-17 07:54:00,
2013-08-17 04:01:00,74.1,73.6,30.00,SSW,194,0.0,0.0,98,0.00,,,0.03,0.0,meteohub,2013-08-17 08:01:00,
2013-08-17 04:07:00,74.1,73.6,30.00,SSW,194,0.0,1.0,98,0.00,,,0.03,0.0,meteohub,2013-08-17 08:07:00,
2013-08-17 04:12:00,74.1,73.6,30.00,SSW,194,0.0,1.0,98,0.00,,,0.03,0.0,meteohub,2013-08-17 08:12:00,
2013-08-17 04:19:00,74.1,73.6,30.00,SSW,194,0.0,1.0,98,0.00,,,0.03,0.0,meteohub,2013-08-17 08:19:00,
2013-08-17 04:25:00,74.1,73.6,30.00,SSW,194,0.0,0.0,98,0.00,,,0.03,0.0,meteohub,2013-08-17 08:25:00,
2013-08-17 04:31:00,74.1,73.6,30.01,SSW,194,0.0,0.0,98,0.00,,,0.03,0.0,meteohub,2013-08-17 08:31:00,
2013-08-17 04:37:00,74.1,73.6,30.01,SSW,194,0.0,1.0,98,0.00,,,0.03,0.0,meteohub,2013-08-17 08:37:00,
2013-08-17 04:42:00,74.1,73.6,30.01,SSW,194,0.0,1.0,98,0.00,,,0.03,0.0,meteohub,2013-08-17 08:42:00,
2013-08-17 04:47:00,74.1,73.6,30.01,SSW,194,0.0,0.0,98,0.00,,,0.03,0.0,meteohub,2013-08-17 08:47:00,
2013-08-17 04:52:00,74.3,73.8,30.01,SSW,194,0.0,0.0,98,0.00,,,0.03,0.0,meteohub,2013-08-17 08:52:00,
2013-08-17 04:57:00,74.1,73.6,30.01,SSW,194,0.0,1.0,98,0.00,,,0.03,0.0,meteohub,2013-08-17 08:57:00,
2013-08-17 05:02:00,74.1,73.6,30.01,SSW,194,0.0,1.0,98,0.00,,,0.03,0.0,meteohub,2013-08-17 09:02:00,
2013-08-17 05:07:00,74.3,73.8,30.01,SSW,194,0.0,1.0,98,0.00,,,0.03,0.0,meteohub,2013-08-17 09:07:00,
2013-08-17 05:12:00,74.1,73.6,30.01,SSW,194,0.0,1.0,98,0.00,,,0.03,0.0,meteohub,2013-08-17 09:12:00,
2013-08-17 05:17:00,74.1,73.6,30.01,SSW,194,0.0,1.0,98,0.00,,,0.03,0.0,meteohub,2013-08-17 09:17:00,
2013-08-17 05:22:00,74.1,73.6,30.01,SSW,194,0.0,1.0,98,0.00,,,0.03,0.0,meteohub,2013-08-17 09:22:00,
2013-08-17 05:27:00,73.9,73.4,30.01,SSW,194,0.0,1.0,98,0.00,,,0.03,0.0,meteohub,2013-08-17 09:27:00,
2013-08-17 05:32:00,73.9,73.4,30.01,SSW,194,0.0,0.0,98,0.00,,,0.03,0.0,meteohub,2013-08-17 09:32:00,
2013-08-17 05:37:00,73.9,73.4,30.01,SSW,194,0.0,0.0,98,0.00,,,0.03,0.0,meteohub,2013-08-17 09:37:00,
2013-08-17 05:42:00,73.9,73.4,30.01,SSW,194,0.0,0.0,98,0.00,,,0.03,0.0,meteohub,2013-08-17 09:42:00,
2013-08-17 05:47:00,73.9,73.4,30.01,SSW,194,0.0,0.0,98,0.00,,,0.03,0.0,meteohub,2013-08-17 09:47:00,
2013-08-17 05:52:00,73.9,73.4,30.01,SSW,194,0.0,0.0,98,0.00,,,0.03,0.0,meteohub,2013-08-17 09:52:00,
2013-08-17 05:58:00,73.9,73.4,30.01,SSW,194,0.0,0.0,98,0.00,,,0.03,0.0,meteohub,2013-08-17 09:58:00,
2013-08-17 06:04:00,73.9,73.4,30.01,SSW,194,0.0,0.0,98,0.00,,,0.03,0.0,meteohub,2013-08-17 10:04:00,
2013-08-17 06:10:00,73.9,73.4,30.01,SSW,194,0.0,0.0,98,0.00,,,0.03,0.0,meteohub,2013-08-17 10:10:00,
2013-08-17 06:16:00,73.8,73.2,30.01,SSW,194,0.0,0.0,98,0.00,,,0.03,0.0,meteohub,2013-08-17 10:16:00,
2013-08-17 06:22:00,73.8,73.2,30.01,SSW,194,0.0,0.0,98,0.00,,,0.03,0.0,meteohub,2013-08-17 10:22:00,
2013-08-17 06:27:00,73.8,73.2,30.02,SSW,194,0.0,0.0,98,0.00,,,0.03,0.0,meteohub,2013-08-17 10:27:00,
2013-08-17 06:32:00,73.6,73.0,30.02,SSW,194,0.0,0.0,98,0.00,,,0.03,0.0,meteohub,2013-08-17 10:32:00,
2013-08-17 06:37:00,73.6,73.0,30.02,SSW,194,0.0,0.0,98,0.00,,,0.03,0.0,meteohub,2013-08-17 10:37:00,
2013-08-17 06:42:00,73.6,73.0,30.03,SSW,194,0.0,0.0,98,0.00,,,0.03,0.0,meteohub,2013-08-17 10:42:00,
2013-08-17 06:47:00,73.6,73.0,30.03,SSW,194,0.0,0.0,98,0.00,,,0.03,0.0,meteohub,2013-08-17 10:47:00,
2013-08-17 06:54:00,73.6,73.0,30.04,SSW,194,0.0,0.0,98,0.00,,,0.03,0.0,meteohub,2013-08-17 10:54:00,
2013-08-17 07:00:00,73.6,73.0,30.03,SSW,194,0.0,0.0,98,0.00,,,0.03,0.0,meteohub,2013-08-17 11:00:00,
2013-08-17 07:06:00,73.6,73.0,30.04,SSW,194,0.0,0.0,98,0.00,,,0.03,0.0,meteohub,2013-08-17 11:06:00,
2013-08-17 07:12:00,73.6,73.0,30.04,SSW,194,0.0,0.0,98,0.00,,,0.03,0.0,meteohub,2013-08-17 11:12:00,
2013-08-17 07:17:00,73.6,73.0,30.04,SSW,194,0.0,0.0,98,0.00,,,0.03,5.0,meteohub,2013-08-17 11:17:00,
2013-08-17 07:22:00,73.6,73.0,30.05,SSW,194,0.0,0.0,98,0.00,,,0.03,11.0,meteohub,2013-08-17 11:22:00,
2013-08-17 07:27:00,73.8,73.2,30.05,SSW,194,0.0,0.0,98,0.00,,,0.03,14.0,meteohub,2013-08-17 11:27:00,
2013-08-17 07:32:00,73.8,73.2,30.05,SSW,194,0.0,0.0,98,0.00,,,0.03,21.0,meteohub,2013-08-17 11:32:00,
2013-08-17 07:37:00,73.9,73.4,30.05,SSW,194,0.0,0.0,98,0.00,,,0.03,25.0,meteohub,2013-08-17 11:37:00,
2013-08-17 07:42:00,73.8,73.2,30.04,SSW,194,0.0,0.0,98,0.00,,,0.03,26.0,meteohub,2013-08-17 11:42:00,
2013-08-17 07:47:00,73.9,73.4,30.05,SSW,194,0.0,0.0,98,0.00,,,0.03,37.0,meteohub,2013-08-17 11:47:00,
2013-08-17 07:52:00,73.9,73.4,30.05,SSW,194,0.0,1.0,98,0.00,,,0.03,47.0,meteohub,2013-08-17 11:52:00,
2013-08-17 07:57:00,74.3,73.8,30.05,SSW,194,0.0,1.0,98,0.00,,,0.03,63.0,meteohub,2013-08-17 11:57:00,
2013-08-17 08:02:00,74.5,73.9,30.05,SSW,194,0.0,0.0,98,0.00,,,0.03,79.0,meteohub,2013-08-17 12:02:00,
2013-08-17 08:08:00,74.7,74.1,30.05,SSW,194,0.0,0.0,98,0.00,,,0.03,98.0,meteohub,2013-08-17 12:08:00,
2013-08-17 08:14:00,75.0,74.5,30.05,SSW,194,0.0,0.0,98,0.00,,,0.03,113.0,meteohub,2013-08-17 12:14:00,
2013-08-17 08:20:00,75.2,73.9,30.06,SSW,194,0.0,1.0,96,0.00,,,0.03,121.0,meteohub,2013-08-17 12:20:00,
2013-08-17 08:26:00,75.6,74.3,30.06,SSW,194,0.0,1.0,96,0.00,,,0.03,134.0,meteohub,2013-08-17 12:26:00,
2013-08-17 08:32:00,75.7,74.5,30.06,SSW,194,1.0,1.0,96,0.00,,,0.03,149.0,meteohub,2013-08-17 12:32:00,
2013-08-17 08:37:00,75.9,74.3,30.06,SSW,194,0.0,1.0,95,0.00,,,0.03,160.0,meteohub,2013-08-17 12:37:00,
2013-08-17 08:42:00,76.3,74.5,30.06,SSW,194,0.0,1.0,94,0.00,,,0.03,169.0,meteohub,2013-08-17 12:42:00,
2013-08-17 08:47:00,76.8,75.2,30.06,SSW,194,0.0,1.0,95,0.00,,,0.03,183.0,meteohub,2013-08-17 12:47:00,
2013-08-17 08:54:00,77.2,74.7,30.06,SSW,194,1.0,2.0,92,0.00,,,0.03,221.0,meteohub,2013-08-17 12:54:00,
2013-08-17 09:01:00,77.5,74.7,30.06,West,259,1.0,2.0,91,0.00,,,0.03,255.0,meteohub,2013-08-17 13:01:00,
2013-08-17 09:07:00,78.3,75.4,30.06,West,267,1.0,2.0,91,0.00,,,0.03,294.0,meteohub,2013-08-17 13:07:00,
2013-08-17 09:12:00,79.0,75.4,30.06,West,260,1.0,3.0,89,0.00,,,0.03,281.0,meteohub,2013-08-17 13:12:00,
2013-08-17 09:19:00,79.2,75.4,30.06,WSW,251,2.0,3.0,88,0.00,,,0.03,359.0,meteohub,2013-08-17 13:19:00,
2013-08-17 09:25:00,79.5,75.0,30.06,WSW,242,1.0,3.0,86,0.00,,,0.03,399.0,meteohub,2013-08-17 13:25:00,
2013-08-17 09:32:00,79.5,75.6,30.06,WSW,249,0.0,3.0,88,0.00,,,0.03,227.0,meteohub,2013-08-17 13:32:00,
2013-08-17 09:37:00,79.5,75.0,30.06,WSW,249,0.0,3.0,86,0.00,,,0.03,264.0,meteohub,2013-08-17 13:37:00,
2013-08-17 09:42:00,79.5,75.0,30.06,WSW,249,1.0,3.0,86,0.00,,,0.03,276.0,meteohub,2013-08-17 13:42:00,
2013-08-17 09:47:00,80.1,75.6,30.06,WSW,258,2.0,3.0,86,0.00,,,0.03,301.0,meteohub,2013-08-17 13:47:00,
2013-08-17 09:52:00,80.1,75.6,30.07,WSW,251,0.0,2.0,86,0.00,,,0.03,279.0,meteohub,2013-08-17 13:52:00,
2013-08-17 09:57:00,80.2,74.7,30.07,West,259,1.0,2.0,83,0.00,,,0.03,255.0,meteohub,2013-08-17 13:57:00,
2013-08-17 10:02:00,80.1,74.5,30.07,West,260,1.0,2.0,83,0.00,,,0.03,336.0,meteohub,2013-08-17 14:02:00,
2013-08-17 10:07:00,80.6,75.0,30.07,SW,226,0.0,3.0,83,0.00,,,0.03,399.0,meteohub,2013-08-17 14:07:00,
2013-08-17 10:12:00,81.1,75.2,30.07,SW,226,0.0,3.0,82,0.00,,,0.03,424.0,meteohub,2013-08-17 14:12:00,
2013-08-17 10:17:00,81.7,74.8,30.07,WSW,254,2.0,3.0,80,0.00,,,0.03,424.0,meteohub,2013-08-17 14:17:00,
2013-08-17 10:22:00,81.3,74.8,30.07,North,355,0.0,3.0,81,0.00,,,0.03,383.0,meteohub,2013-08-17 14:22:00,
2013-08-17 10:27:00,81.9,75.0,30.07,NNW,346,1.0,3.0,80,0.00,,,0.03,338.0,meteohub,2013-08-17 14:27:00,
2013-08-17 10:32:00,81.5,74.7,30.07,WSW,241,1.0,3.0,80,0.00,,,0.03,264.0,meteohub,2013-08-17 14:32:00,
2013-08-17 10:37:00,81.3,76.1,30.08,West,270,0.0,3.0,84,0.00,,,0.03,216.0,meteohub,2013-08-17 14:37:00,
2013-08-17 10:42:00,81.1,75.2,30.08,SSE,159,1.0,4.0,82,0.00,,,0.03,128.0,meteohub,2013-08-17 14:42:00,
2013-08-17 10:49:00,80.8,75.6,30.09,SW,229,1.0,4.0,84,0.00,,,0.03,149.0,meteohub,2013-08-17 14:49:00,
2013-08-17 10:55:00,80.6,76.1,30.08,WSW,254,0.0,3.0,86,0.00,,,0.03,142.0,meteohub,2013-08-17 14:55:00,
2013-08-17 11:01:00,80.2,75.7,30.09,WSW,254,1.0,3.0,86,0.00,,,0.04,167.0,meteohub,2013-08-17 15:01:00,
2013-08-17 11:07:00,80.2,76.3,30.08,WSW,254,0.0,3.0,88,0.01,,,0.04,190.0,meteohub,2013-08-17 15:07:00,
2013-08-17 11:14:00,80.1,76.1,30.08,WSW,252,0.0,3.0,88,0.01,,,0.04,181.0,meteohub,2013-08-17 15:14:00,
2013-08-17 11:20:00,80.1,76.1,30.08,SW,216,0.0,3.0,88,0.01,,,0.04,183.0,meteohub,2013-08-17 15:20:00,
2013-08-17 11:26:00,79.5,75.6,30.08,SW,217,0.0,3.0,88,0.01,,,0.04,218.0,meteohub,2013-08-17 15:26:00,
2013-08-17 11:32:00,79.9,75.9,30.07,SSW,211,1.0,3.0,88,0.01,,,0.04,239.0,meteohub,2013-08-17 15:32:00,
2013-08-17 11:37:00,80.1,75.6,30.06,SSW,211,1.0,2.0,86,0.01,,,0.04,295.0,meteohub,2013-08-17 15:37:00,
2013-08-17 11:42:00,80.4,75.9,30.06,SSW,211,0.0,2.0,86,0.01,,,0.04,362.0,meteohub,2013-08-17 15:42:00,
2013-08-17 11:47:00,80.8,76.5,30.06,NNE,30,0.0,2.0,87,0.01,,,0.04,483.0,meteohub,2013-08-17 15:47:00,
2013-08-17 11:54:00,81.3,76.5,30.07,SW,233,1.0,2.0,85,0.00,,,0.04,432.0,meteohub,2013-08-17 15:54:00,
2013-08-17 12:00:00,81.9,76.8,30.07,NE,53,2.0,3.0,85,0.00,,,0.04,485.0,meteohub,2013-08-17 16:00:00,
2013-08-17 12:06:00,81.9,76.1,30.06,ENE,69,1.0,3.0,83,0.00,,,0.04,499.0,meteohub,2013-08-17 16:06:00,
2013-08-17 12:12:00,81.7,75.6,30.07,NNE,23,2.0,5.0,82,0.00,,,0.04,408.0,meteohub,2013-08-17 16:12:00,
2013-08-17 12:18:00,81.5,75.9,30.07,NNE,25,0.0,5.0,83,0.00,,,0.04,388.0,meteohub,2013-08-17 16:18:00,
2013-08-17 12:24:00,81.3,76.5,30.07,SE,132,0.0,4.0,85,0.00,,,0.04,364.0,meteohub,2013-08-17 16:24:00,
2013-08-17 12:31:00,82.0,76.3,30.07,North,349,0.0,4.0,83,0.00,,,0.04,279.0,meteohub,2013-08-17 16:31:00,
2013-08-17 12:37:00,82.0,76.3,30.07,WNW,282,1.0,4.0,83,0.00,,,0.04,504.0,meteohub,2013-08-17 16:37:00,
2013-08-17 12:42:00,82.6,76.5,30.07,WNW,282,1.0,2.0,82,0.00,,,0.04,485.0,meteohub,2013-08-17 16:42:00,
2013-08-17 12:49:00,83.5,77.7,30.07,NE,52,1.0,2.0,83,0.00,,,0.04,540.0,meteohub,2013-08-17 16:49:00,
2013-08-17 12:55:00,83.7,76.5,30.07,NE,55,1.0,2.0,79,0.00,,,0.04,410.0,meteohub,2013-08-17 16:55:00,
2013-08-17 13:02:00,83.7,77.2,30.07,SSE,148,2.0,3.0,81,0.00,,,0.04,587.0,meteohub,2013-08-17 17:02:00,
2013-08-17 13:07:00,84.4,76.8,30.06,NE,47,3.0,3.0,78,0.00,,,0.04,712.0,meteohub,2013-08-17 17:07:00,
2013-08-17 13:14:00,84.7,77.9,30.06,ENE,63,1.0,3.0,80,0.00,,,0.04,974.0,meteohub,2013-08-17 17:14:00,
2013-08-17 13:20:00,85.6,76.8,30.06,SSE,163,1.0,3.0,75,0.00,,,0.04,394.0,meteohub,2013-08-17 17:20:00,
2013-08-17 13:27:00,84.9,76.5,30.06,NE,55,1.0,4.0,76,0.00,,,0.04,545.0,meteohub,2013-08-17 17:27:00,
2013-08-17 13:32:00,85.8,78.6,30.06,ENE,63,2.0,4.0,79,0.00,,,0.04,882.0,meteohub,2013-08-17 17:32:00,
2013-08-17 13:37:00,85.5,77.0,30.06,ENE,65,1.0,4.0,76,0.00,,,0.04,410.0,meteohub,2013-08-17 17:37:00,
2013-08-17 13:42:00,84.7,76.6,30.06,NE,40,2.0,4.0,77,0.00,,,0.04,378.0,meteohub,2013-08-17 17:42:00,
2013-08-17 13:48:00,84.7,75.6,30.05,South,180,2.0,4.0,74,0.00,,,0.04,434.0,meteohub,2013-08-17 17:48:00,
2013-08-17 13:54:00,84.7,77.2,30.04,ENE,68,0.0,4.0,78,0.00,,,0.04,526.0,meteohub,2013-08-17 17:54:00,
2013-08-17 14:00:00,85.1,77.5,30.04,East,88,1.0,4.0,78,0.00,,,0.04,452.0,meteohub,2013-08-17 18:00:00,
2013-08-17 14:07:00,85.3,76.8,30.04,South,172,0.0,3.0,76,0.00,,,0.04,413.0,meteohub,2013-08-17 18:07:00,
2013-08-17 14:12:00,84.9,77.4,30.05,ENE,59,2.0,3.0,78,0.00,,,0.04,404.0,meteohub,2013-08-17 18:12:00,
2013-08-17 14:17:00,84.9,76.1,30.04,South,190,0.0,3.0,75,0.00,,,0.04,353.0,meteohub,2013-08-17 18:17:00,
2013-08-17 14:22:00,85.3,77.7,30.04,NW,314,1.0,4.0,78,0.00,,,0.04,392.0,meteohub,2013-08-17 18:22:00,
2013-08-17 14:27:00,85.3,77.2,30.04,ENE,62,0.0,4.0,77,0.00,,,0.04,357.0,meteohub,2013-08-17 18:27:00,
2013-08-17 14:32:00,85.3,77.7,30.04,ENE,67,2.0,4.0,78,0.00,,,0.04,325.0,meteohub,2013-08-17 18:32:00,
2013-08-17 14:37:00,84.7,77.2,30.03,ENE,67,2.0,4.0,78,0.00,,,0.04,439.0,meteohub,2013-08-17 18:37:00,
2013-08-17 14:42:00,85.5,77.7,30.03,SE,141,0.0,4.0,78,0.00,,,0.04,944.0,meteohub,2013-08-17 18:42:00,
2013-08-17 14:47:00,87.4,77.7,30.03,NNE,32,3.0,4.0,73,0.00,,,0.04,1380.0,meteohub,2013-08-17 18:47:00,
2013-08-17 14:52:00,87.1,77.4,30.03,SSE,159,1.0,4.0,73,0.00,,,0.04,983.0,meteohub,2013-08-17 18:52:00,
2013-08-17 14:57:00,86.9,76.8,30.03,NE,42,1.0,5.0,72,0.00,,,0.04,645.0,meteohub,2013-08-17 18:57:00,
2013-08-17 15:02:00,86.5,76.5,30.03,NE,34,2.0,5.0,72,0.00,,,0.04,610.0,meteohub,2013-08-17 19:02:00,
2013-08-17 15:07:00,86.2,77.0,30.03,SE,136,2.0,5.0,74,0.00,,,0.04,427.0,meteohub,2013-08-17 19:07:00,
2013-08-17 15:12:00,85.3,76.8,30.03,SSE,151,1.0,5.0,76,0.00,,,0.04,432.0,meteohub,2013-08-17 19:12:00,
2013-08-17 15:17:00,85.3,77.2,30.02,East,84,0.0,5.0,77,0.00,,,0.04,417.0,meteohub,2013-08-17 19:17:00,
2013-08-17 15:22:00,85.1,77.0,30.03,SSE,163,0.0,4.0,77,0.00,,,0.04,345.0,meteohub,2013-08-17 19:22:00,
2013-08-17 15:27:00,84.9,77.7,30.02,NE,38,3.0,4.0,79,0.00,,,0.04,322.0,meteohub,2013-08-17 19:27:00,
2013-08-17 15:32:00,84.9,76.5,30.03,SE,141,1.0,4.0,76,0.00,,,0.04,322.0,meteohub,2013-08-17 19:32:00,
2013-08-17 15:37:00,84.6,76.5,30.02,SSE,157,0.0,4.0,77,0.00,,,0.04,302.0,meteohub,2013-08-17 19:37:00,
2013-08-17 15:42:00,84.7,77.2,30.02,NE,36,2.0,4.0,78,0.00,,,0.04,279.0,meteohub,2013-08-17 19:42:00,
2013-08-17 15:48:00,84.4,76.8,30.02,NNE,27,1.0,4.0,78,0.00,,,0.04,283.0,meteohub,2013-08-17 19:48:00,
2013-08-17 15:55:00,84.6,77.4,30.02,SE,136,0.0,3.0,79,0.00,,,0.04,311.0,meteohub,2013-08-17 19:55:00,
2013-08-17 16:01:00,84.9,77.7,30.02,NNE,28,0.0,3.0,79,0.00,,,0.04,292.0,meteohub,2013-08-17 20:01:00,
2013-08-17 16:07:00,84.7,78.3,30.01,NE,51,1.0,3.0,81,0.00,,,0.04,278.0,meteohub,2013-08-17 20:07:00,
2013-08-17 16:12:00,84.7,77.5,30.01,SE,144,0.0,3.0,79,0.00,,,0.04,283.0,meteohub,2013-08-17 20:12:00,
2013-08-17 16:17:00,84.7,77.5,30.01,NE,48,0.0,3.0,79,0.00,,,0.04,283.0,meteohub,2013-08-17 20:17:00,
2013-08-17 16:22:00,84.6,77.4,30.01,NE,49,1.0,5.0,79,0.00,,,0.04,294.0,meteohub,2013-08-17 20:22:00,
2013-08-17 16:27:00,84.7,77.5,30.01,SE,134,0.0,5.0,79,0.00,,,0.04,315.0,meteohub,2013-08-17 20:27:00,
2013-08-17 16:32:00,84.7,77.5,30.01,WNW,301,2.0,5.0,79,0.00,,,0.04,350.0,meteohub,2013-08-17 20:32:00,
2013-08-17 16:37:00,84.9,77.7,30.01,NE,43,1.0,4.0,79,0.00,,,0.04,394.0,meteohub,2013-08-17 20:37:00,
2013-08-17 16:44:00,85.5,77.7,30.01,ESE,119,2.0,4.0,78,0.00,,,0.04,468.0,meteohub,2013-08-17 20:44:00,
2013-08-17 16:50:00,85.5,77.4,30.01,ENE,68,2.0,5.0,77,0.00,,,0.04,353.0,meteohub,2013-08-17 20:50:00,
2013-08-17 16:57:00,84.9,77.4,30.01,NNE,33,2.0,5.0,78,0.00,,,0.04,258.0,meteohub,2013-08-17 20:57:00,
2013-08-17 17:02:00,84.6,77.0,30.01,East,93,2.0,5.0,78,0.00,,,0.04,211.0,meteohub,2013-08-17 21:02:00,
2013-08-17 17:09:00,84.2,76.6,30.01,WNW,292,1.0,5.0,78,0.00,,,0.04,193.0,meteohub,2013-08-17 21:09:00,
2013-08-17 17:15:00,84.0,76.8,30.01,NNE,15,1.0,5.0,79,0.00,,,0.04,160.0,meteohub,2013-08-17 21:15:00,
2013-08-17 17:21:00,83.7,76.8,30.01,ENE,72,1.0,4.0,80,0.00,,,0.04,141.0,meteohub,2013-08-17 21:21:00,
2013-08-17 17:27:00,83.5,76.6,30.01,NE,44,2.0,4.0,80,0.00,,,0.04,162.0,meteohub,2013-08-17 21:27:00,
2013-08-17 17:32:00,83.5,77.4,30.01,NE,38,2.0,4.0,82,0.00,,,0.04,162.0,meteohub,2013-08-17 21:32:00,
2013-08-17 17:37:00,83.3,77.5,30.01,East,80,1.0,5.0,83,0.00,,,0.04,158.0,meteohub,2013-08-17 21:37:00,
2013-08-17 17:42:00,83.1,76.6,30.01,ENE,71,0.0,5.0,81,0.00,,,0.04,167.0,meteohub,2013-08-17 21:42:00,
2013-08-17 17:47:00,82.9,75.7,30.01,North,11,2.0,5.0,79,0.00,,,0.04,142.0,meteohub,2013-08-17 21:47:00,
2013-08-17 17:52:00,82.8,75.9,30.01,SSE,157,0.0,5.0,80,0.00,,,0.04,130.0,meteohub,2013-08-17 21:52:00,
2013-08-17 17:57:00,82.6,75.4,30.02,ENE,58,1.0,4.0,79,0.00,,,0.04,114.0,meteohub,2013-08-17 21:57:00,
2013-08-17 18:02:00,82.2,75.4,30.01,ENE,70,0.0,4.0,80,0.00,,,0.04,125.0,meteohub,2013-08-17 22:02:00,
2013-08-17 18:07:00,82.2,75.7,30.01,ENE,64,1.0,4.0,81,0.00,,,0.04,128.0,meteohub,2013-08-17 22:07:00,
2013-08-17 18:12:00,82.2,76.1,30.01,ESE,115,0.0,4.0,82,0.00,,,0.04,139.0,meteohub,2013-08-17 22:12:00,
2013-08-17 18:17:00,82.2,76.1,30.01,NNE,17,1.0,4.0,82,0.00,,,0.04,346.0,meteohub,2013-08-17 22:17:00,
2013-08-17 18:22:00,82.6,76.1,30.01,NE,53,1.0,3.0,81,0.00,,,0.04,144.0,meteohub,2013-08-17 22:22:00,
2013-08-17 18:29:00,82.2,76.1,30.01,NNE,26,1.0,3.0,82,0.00,,,0.04,105.0,meteohub,2013-08-17 22:29:00,
2013-08-17 18:35:00,82.0,75.9,30.01,NNE,29,1.0,3.0,82,0.00,,,0.04,93.0,meteohub,2013-08-17 22:35:00,
2013-08-17 18:42:00,81.7,75.9,30.02,ENE,61,0.0,5.0,83,0.00,,,0.04,88.0,meteohub,2013-08-17 22:42:00,
2013-08-17 18:48:00,81.3,75.7,30.02,NNE,19,1.0,5.0,83,0.00,,,0.04,90.0,meteohub,2013-08-17 22:48:00,
2013-08-17 18:54:00,81.1,75.6,30.01,NE,52,0.0,4.0,83,0.00,,,0.04,72.0,meteohub,2013-08-17 22:54:00,
2013-08-17 19:00:00,80.8,75.6,30.02,SE,139,1.0,4.0,84,0.00,,,0.04,56.0,meteohub,2013-08-17 23:00:00,
2013-08-17 19:07:00,80.4,75.6,30.03,ENE,63,1.0,4.0,85,0.00,,,0.04,51.0,meteohub,2013-08-17 23:07:00,
2013-08-17 19:12:00,80.4,75.6,30.03,ENE,63,0.0,3.0,85,0.00,,,0.04,51.0,meteohub,2013-08-17 23:12:00,
2013-08-17 19:19:00,80.2,75.4,30.04,ENE,63,0.0,3.0,85,0.00,,,0.04,42.0,meteohub,2013-08-17 23:19:00,
2013-08-17 19:25:00,80.1,75.6,30.04,ENE,63,1.0,3.0,86,0.00,,,0.04,35.0,meteohub,2013-08-17 23:25:00,
2013-08-17 19:31:00,79.9,75.4,30.04,NE,41,0.0,1.0,86,0.00,,,0.04,32.0,meteohub,2013-08-17 23:31:00,
2013-08-17 19:37:00,79.5,75.4,30.05,NE,41,1.0,1.0,87,0.00,,,0.04,26.0,meteohub,2013-08-17 23:37:00,
2013-08-17 19:42:00,79.5,75.4,30.06,NE,41,0.0,2.0,87,0.00,,,0.04,19.0,meteohub,2013-08-17 23:42:00,
2013-08-17 19:50:00,79.3,75.6,30.06,NE,41,0.0,2.0,88,0.00,,,0.04,12.0,meteohub,2013-08-17 23:50:00,
2013-08-17 19:56:00,79.2,75.6,30.06,NE,41,0.0,2.0,89,0.00,,,0.04,5.0,meteohub,2013-08-17 23:56:00,
2013-08-17 20:02:00,78.8,75.2,30.06,NE,41,0.0,2.0,89,0.00,,,0.04,0.0,meteohub,2013-08-18 00:02:00,
2013-08-17 20:07:00,78.8,75.6,30.06,NE,41,0.0,1.0,90,0.00,,,0.04,0.0,meteohub,2013-08-18 00:07:00,
2013-08-17 20:12:00,78.6,75.4,30.06,NE,41,0.0,1.0,90,0.00,,,0.04,0.0,meteohub,2013-08-18 00:12:00,
2013-08-17 20:17:00,78.4,75.2,30.06,NE,41,0.0,1.0,90,0.00,,,0.00,0.0,meteohub,2013-08-18 00:17:00,
2013-08-17 20:22:00,78.4,75.6,30.06,NE,41,0.0,1.0,91,0.00,,,0.00,0.0,meteohub,2013-08-18 00:22:00,
2013-08-17 20:27:00,78.3,75.4,30.07,NE,41,0.0,1.0,91,0.00,,,0.00,0.0,meteohub,2013-08-18 00:27:00,
2013-08-17 20:33:00,78.4,75.6,30.07,NE,41,0.0,1.0,91,0.00,,,0.00,0.0,meteohub,2013-08-18 00:33:00,
2013-08-17 20:39:00,78.3,75.4,30.07,NE,41,0.0,1.0,91,0.00,,,0.00,0.0,meteohub,2013-08-18 00:39:00,
2013-08-17 20:45:00,78.3,75.7,30.07,NE,41,0.0,1.0,92,0.00,,,0.00,0.0,meteohub,2013-08-18 00:45:00,
2013-08-17 20:52:00,78.3,75.7,30.09,NE,44,0.0,1.0,92,0.00,,,0.00,0.0,meteohub,2013-08-18 00:52:00,
2013-08-17 20:57:00,77.9,75.7,30.09,NE,44,0.0,1.0,93,0.00,,,0.00,0.0,meteohub,2013-08-18 00:57:00,
2013-08-17 21:04:00,77.7,75.9,30.08,NE,44,0.0,1.0,94,0.00,,,0.00,0.0,meteohub,2013-08-18 01:04:00,
2013-08-17 21:10:00,77.5,75.9,30.08,NE,44,1.0,1.0,95,0.00,,,0.00,0.0,meteohub,2013-08-18 01:10:00,
2013-08-17 21:16:00,77.5,75.9,30.08,NE,44,0.0,1.0,95,0.00,,,0.00,0.0,meteohub,2013-08-18 01:16:00,
2013-08-17 21:22:00,77.0,73.8,30.12,SSE,163,4.0,4.0,90,0.00,,,0.00,0.0,meteohub,2013-08-18 01:22:00,
2013-08-17 21:27:00,74.8,71.4,30.11,West,265,5.0,12.0,89,0.05,,,0.00,0.0,meteohub,2013-08-18 01:27:00,
2013-08-17 21:32:00,73.2,70.5,30.12,WNW,283,4.0,12.0,91,0.05,,,0.62,0.0,meteohub,2013-08-18 01:32:00,
2013-08-17 21:37:00,72.1,70.0,30.12,WNW,302,3.0,17.0,93,0.64,,,0.62,0.0,meteohub,2013-08-18 01:37:00,
2013-08-17 21:42:00,71.8,70.3,30.12,SW,233,2.0,17.0,95,0.64,,,0.93,0.0,meteohub,2013-08-18 01:42:00,
2013-08-17 21:47:00,72.1,70.9,30.13,NW,314,1.0,14.0,96,0.94,,,0.93,0.0,meteohub,2013-08-18 01:47:00,
2013-08-17 21:53:00,72.5,71.2,30.13,West,279,0.0,14.0,96,0.95,,,0.94,0.0,meteohub,2013-08-18 01:53:00,
2013-08-17 21:59:00,72.5,71.2,30.13,West,279,0.0,12.0,96,0.95,,,0.94,0.0,meteohub,2013-08-18 01:59:00,
2013-08-17 22:06:00,72.7,71.8,30.12,SSW,200,2.0,12.0,97,0.98,,,0.98,0.0,meteohub,2013-08-18 02:06:00,
2013-08-17 22:12:00,72.7,71.8,30.12,SSW,200,0.0,3.0,97,0.98,,,0.98,0.0,meteohub,2013-08-18 02:12:00,
2013-08-17 22:17:00,72.7,71.8,30.12,SSW,200,0.0,3.0,97,0.98,,,0.98,0.0,meteohub,2013-08-18 02:17:00,
2013-08-17 22:22:00,72.7,71.8,30.12,SSW,200,0.0,3.0,97,0.98,,,0.98,0.0,meteohub,2013-08-18 02:22:00,
2013-08-17 22:27:00,72.7,71.8,30.12,SSW,200,0.0,2.0,97,0.86,,,0.98,0.0,meteohub,2013-08-18 02:27:00,
2013-08-17 22:32:00,72.5,71.6,30.11,SSW,200,0.0,2.0,97,0.86,,,0.98,0.0,meteohub,2013-08-18 02:32:00,
2013-08-17 22:37:00,72.5,71.6,30.11,SSW,200,0.0,2.0,97,0.28,,,0.98,0.0,meteohub,2013-08-18 02:37:00,
2013-08-17 22:42:00,72.5,71.6,30.12,SSW,200,0.0,2.0,97,0.28,,,0.98,0.0,meteohub,2013-08-18 02:42:00,
2013-08-17 22:47:00,72.5,71.6,30.12,SSW,200,0.0,1.0,97,0.04,,,0.98,0.0,meteohub,2013-08-18 02:47:00,
2013-08-17 22:52:00,72.7,72.1,30.12,SSW,200,0.0,1.0,98,0.04,,,0.98,0.0,meteohub,2013-08-18 02:52:00,
2013-08-17 22:57:00,72.7,72.1,30.12,SSW,200,0.0,0.0,98,0.03,,,0.98,0.0,meteohub,2013-08-18 02:57:00,
2013-08-17 23:02:00,72.7,71.8,30.12,SSW,200,0.0,0.0,97,0.03,,,0.98,0.0,meteohub,2013-08-18 03:02:00,
2013-08-17 23:07:00,72.7,72.1,30.12,SSW,200,0.0,1.0,98,0.00,,,0.98,0.0,meteohub,2013-08-18 03:07:00,
2013-08-17 23:12:00,72.7,72.1,30.11,SSW,200,0.0,1.0,98,0.00,,,0.98,0.0,meteohub,2013-08-18 03:12:00,
2013-08-17 23:17:00,72.7,72.1,30.11,SSW,200,0.0,1.0,98,0.00,,,0.98,0.0,meteohub,2013-08-18 03:17:00,
2013-08-17 23:22:00,72.7,72.1,30.11,SSW,200,0.0,1.0,98,0.00,,,0.98,0.0,meteohub,2013-08-18 03:22:00,
2013-08-17 23:27:00,72.7,72.1,30.11,SSW,200,0.0,0.0,98,0.00,,,0.98,0.0,meteohub,2013-08-18 03:27:00,
2013-08-17 23:32:00,72.7,72.1,30.11,SSW,200,1.0,0.0,98,0.00,,,0.98,0.0,meteohub,2013-08-18 03:32:00,
2013-08-17 23:37:00,72.5,72.0,30.11,SSW,200,0.0,1.0,98,0.00,,,0.98,0.0,meteohub,2013-08-18 03:37:00,
2013-08-17 23:42:00,72.5,72.0,30.11,SSW,200,0.0,1.0,98,0.00,,,0.98,0.0,meteohub,2013-08-18 03:42:00,
2013-08-17 23:47:00,72.5,72.0,30.11,SSW,200,1.0,1.0,98,0.00,,,0.98,0.0,meteohub,2013-08-18 03:47:00,
2013-08-17 23:52:00,72.5,72.0,30.10,SSW,200,0.0,1.0,98,0.00,,,0.98,0.0,meteohub,2013-08-18 03:52:00,
2013-08-17 23:57:00,72.5,72.0,30.10,SSW,200,0.0,1.0,98,0.00,,,0.98,0.0,meteohub,2013-08-18 03:57:00,